Richfield, Wisconsin
Current Conditions -  °F | °C
As of 10:35 AM on Saturday 22 Nov 2014 (Local Time) from KETB Reporting Station
Haze Haze  
Wind Chill: 30°   Ceiling: 400
Heat Index: 37°   Visibility: 4mi
Dew Point: 36°   Wind: 10mph
Humidity: 93%   Direction: 210°SSW
Pressure: 29.87"   Gusts: NA
Location:  43.26°N, 88.19°W
Report Text: KETB 221635Z AUTO 21009KT 4SM BR OVC004 03/02 A2987 RMK AO2
Loading
Personal Weather Stations






























Interactive Weather Map New forecast layout! Learn more

10-Day Weather Forecast

Advertisements
Track Severe Weather on mobile